sensor_id;sensor_type;location;lat;lon;timestamp;temperature;humidity
19930;DHT22;10127;47.780;9.606;2022-12-29T00:02:04;3.30;99.90
19930;DHT22;10127;47.780;9.606;2022-12-29T00:04:29;3.20;99.90
19930;DHT22;10127;47.780;9.606;2022-12-29T00:06:55;3.20;99.90
19930;DHT22;10127;47.780;9.606;2022-12-29T00:09:21;3.30;99.90
19930;DHT22;10127;47.780;9.606;2022-12-29T00:11:47;3.40;99.90
19930;DHT22;10127;47.780;9.606;2022-12-29T00:14:12;3.60;99.90
19930;DHT22;10127;47.780;9.606;2022-12-29T00:16:57;3.60;99.90
19930;DHT22;10127;47.780;9.606;2022-12-29T00:19:23;3.50;99.90
19930;DHT22;10127;47.780;9.606;2022-12-29T00:22:11;3.50;99.90
19930;DHT22;10127;47.780;9.606;2022-12-29T00:24:56;3.60;99.90
19930;DHT22;10127;47.780;9.606;2022-12-29T00:27:26;3.80;99.90
19930;DHT22;10127;47.780;9.606;2022-12-29T00:30:14;3.90;99.90
19930;DHT22;10127;47.780;9.606;2022-12-29T00:32:58;3.80;99.90
19930;DHT22;10127;47.780;9.606;2022-12-29T00:36:13;3.60;99.90
19930;DHT22;10127;47.780;9.606;2022-12-29T00:38:43;3.70;99.90
19930;DHT22;10127;47.780;9.606;2022-12-29T00:41:28;3.70;99.90
19930;DHT22;10127;47.780;9.606;2022-12-29T00:44:13;3.70;99.90
19930;DHT22;10127;47.780;9.606;2022-12-29T00:46:41;3.70;99.90
19930;DHT22;10127;47.780;9.606;2022-12-29T00:49:09;3.60;99.90
19930;DHT22;10127;47.780;9.606;2022-12-29T00:51:55;3.70;99.90
19930;DHT22;10127;47.780;9.606;2022-12-29T00:54:22;3.80;99.90
19930;DHT22;10127;47.780;9.606;2022-12-29T00:56:49;3.80;99.90
19930;DHT22;10127;47.780;9.606;2022-12-29T00:59:15;3.80;99.90
19930;DHT22;10127;47.780;9.606;2022-12-29T01:01:41;4.00;99.90
19930;DHT22;10127;47.780;9.606;2022-12-29T01:04:07;4.00;99.90
19930;DHT22;10127;47.780;9.606;2022-12-29T01:06:34;3.90;99.90
19930;DHT22;10127;47.780;9.606;2022-12-29T01:09:00;3.90;99.90
19930;DHT22;10127;47.780;9.606;2022-12-29T01:11:44;3.90;99.90
19930;DHT22;10127;47.780;9.606;2022-12-29T01:14:10;4.00;99.90
19930;DHT22;10127;47.780;9.606;2022-12-29T01:16:35;4.20;99.90
19930;DHT22;10127;47.780;9.606;2022-12-29T01:19:02;4.20;99.90
19930;DHT22;10127;47.780;9.606;2022-12-29T01:21:28;4.20;99.90
19930;DHT22;10127;47.780;9.606;2022-12-29T01:23:53;4.30;99.90
19930;DHT22;10127;47.780;9.606;2022-12-29T01:26:19;4.30;99.90
19930;DHT22;10127;47.780;9.606;2022-12-29T01:28:45;4.40;99.90
19930;DHT22;10127;47.780;9.606;2022-12-29T01:31:13;4.40;99.90
19930;DHT22;10127;47.780;9.606;2022-12-29T01:33:38;4.40;99.90
19930;DHT22;10127;47.780;9.606;2022-12-29T01:36:06;4.20;99.90
19930;DHT22;10127;47.780;9.606;2022-12-29T01:38:33;4.00;99.90
19930;DHT22;10127;47.780;9.606;2022-12-29T01:40:59;3.90;99.90
19930;DHT22;10127;47.780;9.606;2022-12-29T01:48:46;4.00;99.90
19930;DHT22;10127;47.780;9.606;2022-12-29T01:51:12;4.00;99.90
19930;DHT22;10127;47.780;9.606;2022-12-29T01:53:37;4.10;99.90
19930;DHT22;10127;47.780;9.606;2022-12-29T01:56:07;4.20;99.90
19930;DHT22;10127;47.780;9.606;2022-12-29T01:58:38;4.20;99.90
19930;DHT22;10127;47.780;9.606;2022-12-29T02:01:05;4.10;99.90
19930;DHT22;10127;47.780;9.606;2022-12-29T02:03:31;4.10;99.90
19930;DHT22;10127;47.780;9.606;2022-12-29T02:06:10;4.20;99.90
19930;DHT22;10127;47.780;9.606;2022-12-29T02:08:37;4.40;99.90
19930;DHT22;10127;47.780;9.606;2022-12-29T02:11:03;4.40;99.90
19930;DHT22;10127;47.780;9.606;2022-12-29T02:13:31;4.40;99.90
19930;DHT22;10127;47.780;9.606;2022-12-29T02:16:19;4.40;99.90
19930;DHT22;10127;47.780;9.606;2022-12-29T02:22:42;4.30;99.90
19930;DHT22;10127;47.780;9.606;2022-12-29T02:25:11;4.40;99.90
19930;DHT22;10127;47.780;9.606;2022-12-29T02:27:48;4.50;99.90
19930;DHT22;10127;47.780;9.606;2022-12-29T02:40:53;4.50;99.90
19930;DHT22;10127;47.780;9.606;2022-12-29T02:43:43;4.40;99.90
19930;DHT22;10127;47.780;9.606;2022-12-29T02:46:33;4.50;99.90
19930;DHT22;10127;47.780;9.606;2022-12-29T02:49:03;4.60;99.90
19930;DHT22;10127;47.780;9.606;2022-12-29T03:15:04;4.80;99.90
19930;DHT22;10127;47.780;9.606;2022-12-29T03:17:57;4.80;99.90
19930;DHT22;10127;47.780;9.606;2022-12-29T03:20:26;4.70;99.90
19930;DHT22;10127;47.780;9.606;2022-12-29T03:23:02;4.80;99.90
19930;DHT22;10127;47.780;9.606;2022-12-29T03:25:38;5.00;99.90
19930;DHT22;10127;47.780;9.606;2022-12-29T03:28:18;5.30;99.90
19930;DHT22;10127;47.780;9.606;2022-12-29T03:30:46;5.70;99.90
19930;DHT22;10127;47.780;9.606;2022-12-29T03:33:14;5.80;99.90
19930;DHT22;10127;47.780;9.606;2022-12-29T03:35:42;5.90;99.90
19930;DHT22;10127;47.780;9.606;2022-12-29T03:41:09;6.00;99.90
19930;DHT22;10127;47.780;9.606;2022-12-29T03:43:35;6.10;99.90
19930;DHT22;10127;47.780;9.606;2022-12-29T03:46:01;6.20;99.90
19930;DHT22;10127;47.780;9.606;2022-12-29T03:48:26;6.10;99.90
19930;DHT22;10127;47.780;9.606;2022-12-29T03:50:52;6.00;99.90
19930;DHT22;10127;47.780;9.606;2022-12-29T03:53:18;5.90;99.90
19930;DHT22;10127;47.780;9.606;2022-12-29T03:55:43;6.00;99.90
19930;DHT22;10127;47.780;9.606;2022-12-29T03:58:09;6.00;99.90
19930;DHT22;10127;47.780;9.606;2022-12-29T04:00:34;6.10;99.90
19930;DHT22;10127;47.780;9.606;2022-12-29T04:03:00;6.30;99.90
19930;DHT22;10127;47.780;9.606;2022-12-29T04:05:25;6.40;99.90
19930;DHT22;10127;47.780;9.606;2022-12-29T04:07:51;6.50;99.90
19930;DHT22;10127;47.780;9.606;2022-12-29T04:10:17;6.70;99.90
19930;DHT22;10127;47.780;9.606;2022-12-29T04:12:42;6.90;99.90
19930;DHT22;10127;47.780;9.606;2022-12-29T04:15:09;7.10;99.90
19930;DHT22;10127;47.780;9.606;2022-12-29T04:17:34;7.10;99.90
19930;DHT22;10127;47.780;9.606;2022-12-29T04:20:00;7.20;99.90
19930;DHT22;10127;47.780;9.606;2022-12-29T04:22:44;7.30;99.90
19930;DHT22;10127;47.780;9.606;2022-12-29T04:25:10;7.30;99.90
19930;DHT22;10127;47.780;9.606;2022-12-29T04:27:35;7.30;99.90
19930;DHT22;10127;47.780;9.606;2022-12-29T04:30:01;7.50;99.90
19930;DHT22;10127;47.780;9.606;2022-12-29T04:32:27;7.60;99.90
19930;DHT22;10127;47.780;9.606;2022-12-29T04:34:52;7.80;99.90
19930;DHT22;10127;47.780;9.606;2022-12-29T04:37:18;7.90;99.90
19930;DHT22;10127;47.780;9.606;2022-12-29T04:39:43;8.10;99.90
19930;DHT22;10127;47.780;9.606;2022-12-29T04:42:09;8.20;99.90
19930;DHT22;10127;47.780;9.606;2022-12-29T04:44:34;8.30;99.90
19930;DHT22;10127;47.780;9.606;2022-12-29T04:47:00;8.40;99.90
19930;DHT22;10127;47.780;9.606;2022-12-29T04:49:25;8.30;99.90
19930;DHT22;10127;47.780;9.606;2022-12-29T04:51:51;8.40;99.90
19930;DHT22;10127;47.780;9.606;2022-12-29T04:54:16;8.40;99.90
19930;DHT22;10127;47.780;9.606;2022-12-29T04:56:42;8.40;99.90
19930;DHT22;10127;47.780;9.606;2022-12-29T04:59:07;8.40;99.90
19930;DHT22;10127;47.780;9.606;2022-12-29T05:01:33;8.40;99.90
19930;DHT22;10127;47.780;9.606;2022-12-29T05:03:58;8.40;99.90
19930;DHT22;10127;47.780;9.606;2022-12-29T05:06:24;8.30;99.90
19930;DHT22;10127;47.780;9.606;2022-12-29T05:08:49;8.30;99.90
19930;DHT22;10127;47.780;9.606;2022-12-29T05:11:15;8.20;99.90
19930;DHT22;10127;47.780;9.606;2022-12-29T05:13:40;8.20;99.90
19930;DHT22;10127;47.780;9.606;2022-12-29T05:16:06;8.10;99.90
19930;DHT22;10127;47.780;9.606;2022-12-29T05:18:32;8.00;99.90
19930;DHT22;10127;47.780;9.606;2022-12-29T05:20:57;7.90;99.90
19930;DHT22;10127;47.780;9.606;2022-12-29T05:23:23;7.90;99.90
19930;DHT22;10127;47.780;9.606;2022-12-29T05:25:49;7.80;99.90
19930;DHT22;10127;47.780;9.606;2022-12-29T05:28:14;7.80;99.90
19930;DHT22;10127;47.780;9.606;2022-12-29T05:30:40;7.70;99.90
19930;DHT22;10127;47.780;9.606;2022-12-29T05:33:06;7.70;99.90
19930;DHT22;10127;47.780;9.606;2022-12-29T05:35:32;7.70;99.90
19930;DHT22;10127;47.780;9.606;2022-12-29T05:37:58;7.70;99.90
19930;DHT22;10127;47.780;9.606;2022-12-29T05:40:23;7.70;99.90
19930;DHT22;10127;47.780;9.606;2022-12-29T05:42:49;7.60;99.90
19930;DHT22;10127;47.780;9.606;2022-12-29T05:45:14;7.60;99.90
19930;DHT22;10127;47.780;9.606;2022-12-29T05:47:40;7.60;99.90
19930;DHT22;10127;47.780;9.606;2022-12-29T05:50:05;7.60;99.90
19930;DHT22;10127;47.780;9.606;2022-12-29T05:52:31;7.50;99.90
19930;DHT22;10127;47.780;9.606;2022-12-29T05:54:56;7.40;99.90
19930;DHT22;10127;47.780;9.606;2022-12-29T05:57:22;7.50;99.90
19930;DHT22;10127;47.780;9.606;2022-12-29T05:59:48;7.50;99.90
19930;DHT22;10127;47.780;9.606;2022-12-29T06:02:13;7.40;99.90
19930;DHT22;10127;47.780;9.606;2022-12-29T06:04:39;7.50;99.90
19930;DHT22;10127;47.780;9.606;2022-12-29T06:07:04;7.30;99.90
19930;DHT22;10127;47.780;9.606;2022-12-29T06:09:30;7.30;99.90
19930;DHT22;10127;47.780;9.606;2022-12-29T06:11:55;7.40;99.90
19930;DHT22;10127;47.780;9.606;2022-12-29T06:14:21;7.50;99.90
19930;DHT22;10127;47.780;9.606;2022-12-29T06:16:46;7.60;99.90
19930;DHT22;10127;47.780;9.606;2022-12-29T06:19:12;7.50;99.90
19930;DHT22;10127;47.780;9.606;2022-12-29T06:21:37;7.50;99.90
19930;DHT22;10127;47.780;9.606;2022-12-29T06:24:04;7.50;99.90
19930;DHT22;10127;47.780;9.606;2022-12-29T06:26:30;7.60;99.90
19930;DHT22;10127;47.780;9.606;2022-12-29T06:28:55;7.60;99.90
19930;DHT22;10127;47.780;9.606;2022-12-29T06:31:21;7.60;99.90
19930;DHT22;10127;47.780;9.606;2022-12-29T06:33:47;7.70;99.90
19930;DHT22;10127;47.780;9.606;2022-12-29T06:36:12;7.80;99.90
19930;DHT22;10127;47.780;9.606;2022-12-29T06:38:38;7.90;99.90
19930;DHT22;10127;47.780;9.606;2022-12-29T06:41:04;8.00;99.90
19930;DHT22;10127;47.780;9.606;2022-12-29T06:43:29;8.10;99.90
19930;DHT22;10127;47.780;9.606;2022-12-29T06:45:56;8.20;99.90
19930;DHT22;10127;47.780;9.606;2022-12-29T06:48:21;8.20;99.90
19930;DHT22;10127;47.780;9.606;2022-12-29T06:50:47;8.10;99.90
19930;DHT22;10127;47.780;9.606;2022-12-29T06:53:12;8.20;99.90
19930;DHT22;10127;47.780;9.606;2022-12-29T06:55:38;8.20;99.90
19930;DHT22;10127;47.780;9.606;2022-12-29T06:58:03;8.30;99.90
19930;DHT22;10127;47.780;9.606;2022-12-29T07:00:29;8.40;99.90
19930;DHT22;10127;47.780;9.606;2022-12-29T07:02:55;8.40;99.90
19930;DHT22;10127;47.780;9.606;2022-12-29T07:05:21;8.40;99.90
19930;DHT22;10127;47.780;9.606;2022-12-29T07:07:47;8.40;99.90
19930;DHT22;10127;47.780;9.606;2022-12-29T07:10:12;8.40;99.90
19930;DHT22;10127;47.780;9.606;2022-12-29T07:12:38;8.40;99.90
19930;DHT22;10127;47.780;9.606;2022-12-29T07:15:04;8.40;99.90
19930;DHT22;10127;47.780;9.606;2022-12-29T07:17:29;8.30;99.90
19930;DHT22;10127;47.780;9.606;2022-12-29T07:19:55;8.40;99.90
19930;DHT22;10127;47.780;9.606;2022-12-29T07:22:20;8.30;99.90
19930;DHT22;10127;47.780;9.606;2022-12-29T07:24:46;8.40;99.90
19930;DHT22;10127;47.780;9.606;2022-12-29T07:27:11;8.40;99.90
19930;DHT22;10127;47.780;9.606;2022-12-29T07:29:37;8.30;99.90
19930;DHT22;10127;47.780;9.606;2022-12-29T07:32:04;8.40;99.90
19930;DHT22;10127;47.780;9.606;2022-12-29T07:34:29;8.40;99.90
19930;DHT22;10127;47.780;9.606;2022-12-29T07:36:55;8.50;99.90
19930;DHT22;10127;47.780;9.606;2022-12-29T07:39:20;8.50;99.90
19930;DHT22;10127;47.780;9.606;2022-12-29T07:41:46;8.50;99.90
19930;DHT22;10127;47.780;9.606;2022-12-29T07:44:12;8.50;99.90
19930;DHT22;10127;47.780;9.606;2022-12-29T07:46:37;8.50;99.90
19930;DHT22;10127;47.780;9.606;2022-12-29T07:49:03;8.50;99.90
19930;DHT22;10127;47.780;9.606;2022-12-29T07:51:28;8.40;99.90
19930;DHT22;10127;47.780;9.606;2022-12-29T07:53:54;8.50;99.90
19930;DHT22;10127;47.780;9.606;2022-12-29T07:56:19;8.50;99.90
19930;DHT22;10127;47.780;9.606;2022-12-29T07:58:45;8.50;99.90
19930;DHT22;10127;47.780;9.606;2022-12-29T08:01:10;8.60;99.90
19930;DHT22;10127;47.780;9.606;2022-12-29T08:03:36;8.60;99.90
19930;DHT22;10127;47.780;9.606;2022-12-29T08:06:02;8.70;99.90
19930;DHT22;10127;47.780;9.606;2022-12-29T08:08:27;8.70;99.90
19930;DHT22;10127;47.780;9.606;2022-12-29T08:10:54;8.80;99.90
19930;DHT22;10127;47.780;9.606;2022-12-29T08:13:19;8.70;99.90
19930;DHT22;10127;47.780;9.606;2022-12-29T08:15:45;8.80;99.90
19930;DHT22;10127;47.780;9.606;2022-12-29T08:18:10;8.90;99.90
19930;DHT22;10127;47.780;9.606;2022-12-29T08:20:36;8.90;99.90
19930;DHT22;10127;47.780;9.606;2022-12-29T08:23:01;8.90;99.90
19930;DHT22;10127;47.780;9.606;2022-12-29T08:25:27;9.00;99.90
19930;DHT22;10127;47.780;9.606;2022-12-29T08:27:52;9.00;99.90
19930;DHT22;10127;47.780;9.606;2022-12-29T08:30:18;9.00;99.90
19930;DHT22;10127;47.780;9.606;2022-12-29T08:32:43;9.10;99.90
19930;DHT22;10127;47.780;9.606;2022-12-29T08:35:09;9.10;99.90
19930;DHT22;10127;47.780;9.606;2022-12-29T08:37:35;9.10;99.90
19930;DHT22;10127;47.780;9.606;2022-12-29T08:40:00;9.20;99.90
19930;DHT22;10127;47.780;9.606;2022-12-29T08:42:29;9.20;99.90
19930;DHT22;10127;47.780;9.606;2022-12-29T08:44:57;9.20;99.90
19930;DHT22;10127;47.780;9.606;2022-12-29T08:47:22;9.10;99.90
19930;DHT22;10127;47.780;9.606;2022-12-29T08:49:48;9.20;99.90
19930;DHT22;10127;47.780;9.606;2022-12-29T08:52:13;9.10;99.90
19930;DHT22;10127;47.780;9.606;2022-12-29T08:54:39;9.10;99.90
19930;DHT22;10127;47.780;9.606;2022-12-29T08:57:05;9.00;99.90
19930;DHT22;10127;47.780;9.606;2022-12-29T08:59:30;9.00;99.90
19930;DHT22;10127;47.780;9.606;2022-12-29T09:01:56;9.00;99.90
19930;DHT22;10127;47.780;9.606;2022-12-29T09:04:21;9.00;99.90
19930;DHT22;10127;47.780;9.606;2022-12-29T09:06:48;9.10;99.90
19930;DHT22;10127;47.780;9.606;2022-12-29T09:09:14;9.10;99.90
19930;DHT22;10127;47.780;9.606;2022-12-29T09:11:41;9.10;99.90
19930;DHT22;10127;47.780;9.606;2022-12-29T09:14:07;9.10;99.90
19930;DHT22;10127;47.780;9.606;2022-12-29T09:16:33;9.10;99.90
19930;DHT22;10127;47.780;9.606;2022-12-29T09:18:59;9.10;99.90
19930;DHT22;10127;47.780;9.606;2022-12-29T09:21:25;9.10;99.90
19930;DHT22;10127;47.780;9.606;2022-12-29T09:23:50;9.20;99.90
19930;DHT22;10127;47.780;9.606;2022-12-29T09:26:16;9.30;99.90
19930;DHT22;10127;47.780;9.606;2022-12-29T09:28:41;9.30;99.90
19930;DHT22;10127;47.780;9.606;2022-12-29T09:31:07;9.30;99.90
19930;DHT22;10127;47.780;9.606;2022-12-29T09:33:33;9.40;99.90
19930;DHT22;10127;47.780;9.606;2022-12-29T09:35:59;9.50;99.90
19930;DHT22;10127;47.780;9.606;2022-12-29T09:38:26;9.50;99.90
19930;DHT22;10127;47.780;9.606;2022-12-29T09:40:54;9.50;99.90
19930;DHT22;10127;47.780;9.606;2022-12-29T09:46:27;9.50;99.90
19930;DHT22;10127;47.780;9.606;2022-12-29T09:51:44;9.80;99.90
19930;DHT22;10127;47.780;9.606;2022-12-29T09:57:02;10.00;99.90
19930;DHT22;10127;47.780;9.606;2022-12-29T09:59:40;10.10;99.90
19930;DHT22;10127;47.780;9.606;2022-12-29T10:02:20;10.20;99.90
19930;DHT22;10127;47.780;9.606;2022-12-29T10:04:49;10.40;99.90
19930;DHT22;10127;47.780;9.606;2022-12-29T10:07:33;10.60;99.90
19930;DHT22;10127;47.780;9.606;2022-12-29T10:10:23;10.80;99.90
19930;DHT22;10127;47.780;9.606;2022-12-29T10:13:28;11.10;99.90
19930;DHT22;10127;47.780;9.606;2022-12-29T10:16:02;11.20;99.90
19930;DHT22;10127;47.780;9.606;2022-12-29T10:18:57;11.40;99.90
19930;DHT22;10127;47.780;9.606;2022-12-29T10:24:34;11.30;99.90
19930;DHT22;10127;47.780;9.606;2022-12-29T10:27:03;11.40;99.90
19930;DHT22;10127;47.780;9.606;2022-12-29T10:29:48;11.40;99.90
19930;DHT22;10127;47.780;9.606;2022-12-29T10:32:28;11.40;99.90
19930;DHT22;10127;47.780;9.606;2022-12-29T10:34:58;11.50;99.90
19930;DHT22;10127;47.780;9.606;2022-12-29T10:37:59;11.50;99.90
19930;DHT22;10127;47.780;9.606;2022-12-29T10:43:44;11.50;99.90
19930;DHT22;10127;47.780;9.606;2022-12-29T10:46:14;11.50;99.90
19930;DHT22;10127;47.780;9.606;2022-12-29T10:48:41;11.50;99.90
19930;DHT22;10127;47.780;9.606;2022-12-29T10:51:10;11.50;99.90
19930;DHT22;10127;47.780;9.606;2022-12-29T10:54:03;11.60;99.90
19930;DHT22;10127;47.780;9.606;2022-12-29T10:58:59;11.80;99.90
19930;DHT22;10127;47.780;9.606;2022-12-29T11:01:32;11.90;99.90
19930;DHT22;10127;47.780;9.606;2022-12-29T11:06:48;12.20;99.50
19930;DHT22;10127;47.780;9.606;2022-12-29T11:09:20;12.30;99.60
19930;DHT22;10127;47.780;9.606;2022-12-29T11:11:46;12.40;99.80
19930;DHT22;10127;47.780;9.606;2022-12-29T11:14:18;12.40;99.90
19930;DHT22;10127;47.780;9.606;2022-12-29T11:16:44;12.50;99.90
19930;DHT22;10127;47.780;9.606;2022-12-29T11:19:23;12.60;99.90
19930;DHT22;10127;47.780;9.606;2022-12-29T11:21:49;12.60;99.90
19930;DHT22;10127;47.780;9.606;2022-12-29T11:24:43;12.70;99.90
19930;DHT22;10127;47.780;9.606;2022-12-29T11:27:15;12.80;99.90
19930;DHT22;10127;47.780;9.606;2022-12-29T11:29:43;12.60;99.90
19930;DHT22;10127;47.780;9.606;2022-12-29T11:32:21;12.60;99.90
19930;DHT22;10127;47.780;9.606;2022-12-29T11:34:48;12.60;99.90
19930;DHT22;10127;47.780;9.606;2022-12-29T11:37:19;12.60;99.90
19930;DHT22;10127;47.780;9.606;2022-12-29T11:39:56;12.60;99.90
19930;DHT22;10127;47.780;9.606;2022-12-29T11:45:19;12.60;99.90
19930;DHT22;10127;47.780;9.606;2022-12-29T11:47:57;12.70;99.90
19930;DHT22;10127;47.780;9.606;2022-12-29T11:50:26;12.70;99.90
19930;DHT22;10127;47.780;9.606;2022-12-29T11:53:08;12.80;99.90
19930;DHT22;10127;47.780;9.606;2022-12-29T11:55:39;12.80;99.90
19930;DHT22;10127;47.780;9.606;2022-12-29T11:58:05;12.90;99.90
19930;DHT22;10127;47.780;9.606;2022-12-29T12:00:34;12.90;99.90
19930;DHT22;10127;47.780;9.606;2022-12-29T12:03:20;13.00;99.90
19930;DHT22;10127;47.780;9.606;2022-12-29T12:05:54;13.00;99.90
19930;DHT22;10127;47.780;9.606;2022-12-29T12:11:15;13.00;99.90
19930;DHT22;10127;47.780;9.606;2022-12-29T12:14:01;13.10;99.90
19930;DHT22;10127;47.780;9.606;2022-12-29T12:17:14;13.10;99.90
19930;DHT22;10127;47.780;9.606;2022-12-29T12:19:48;13.10;99.90
19930;DHT22;10127;47.780;9.606;2022-12-29T12:22:27;13.20;99.90
19930;DHT22;10127;47.780;9.606;2022-12-29T12:24:59;13.20;99.90
19930;DHT22;10127;47.780;9.606;2022-12-29T12:27:32;13.10;99.90
19930;DHT22;10127;47.780;9.606;2022-12-29T12:30:11;13.00;99.90
19930;DHT22;10127;47.780;9.606;2022-12-29T12:32:45;12.90;99.90
19930;DHT22;10127;47.780;9.606;2022-12-29T12:35:20;12.90;99.90
19930;DHT22;10127;47.780;9.606;2022-12-29T12:44:01;12.70;99.90
19930;DHT22;10127;47.780;9.606;2022-12-29T12:52:50;12.60;99.90
19930;DHT22;10127;47.780;9.606;2022-12-29T13:01:10;12.40;99.90
19930;DHT22;10127;47.780;9.606;2022-12-29T13:06:33;12.30;99.90
19930;DHT22;10127;47.780;9.606;2022-12-29T13:14:29;12.20;99.90
19930;DHT22;10127;47.780;9.606;2022-12-29T13:17:17;12.20;99.90
19930;DHT22;10127;47.780;9.606;2022-12-29T13:22:37;12.20;99.90
19930;DHT22;10127;47.780;9.606;2022-12-29T13:25:21;12.20;99.90
19930;DHT22;10127;47.780;9.606;2022-12-29T13:27:56;12.20;99.90
19930;DHT22;10127;47.780;9.606;2022-12-29T13:30:28;12.20;99.90
19930;DHT22;10127;47.780;9.606;2022-12-29T13:38:29;12.20;99.90
19930;DHT22;10127;47.780;9.606;2022-12-29T13:41:02;12.10;99.90
19930;DHT22;10127;47.780;9.606;2022-12-29T13:43:31;12.10;99.90
19930;DHT22;10127;47.780;9.606;2022-12-29T13:46:05;12.00;99.90
19930;DHT22;10127;47.780;9.606;2022-12-29T13:48:52;12.00;99.90
19930;DHT22;10127;47.780;9.606;2022-12-29T13:51:20;12.00;99.90
19930;DHT22;10127;47.780;9.606;2022-12-29T13:56:39;12.00;99.90
19930;DHT22;10127;47.780;9.606;2022-12-29T14:01:46;11.90;99.90
19930;DHT22;10127;47.780;9.606;2022-12-29T14:04:20;11.90;99.90
19930;DHT22;10127;47.780;9.606;2022-12-29T14:06:50;11.90;99.90
19930;DHT22;10127;47.780;9.606;2022-12-29T14:09:42;11.90;99.90
19930;DHT22;10127;47.780;9.606;2022-12-29T14:12:38;11.90;99.90
19930;DHT22;10127;47.780;9.606;2022-12-29T14:15:05;11.90;99.90
19930;DHT22;10127;47.780;9.606;2022-12-29T14:17:32;11.90;99.90
19930;DHT22;10127;47.780;9.606;2022-12-29T14:19:58;11.90;99.90
19930;DHT22;10127;47.780;9.606;2022-12-29T14:22:26;11.90;99.90
19930;DHT22;10127;47.780;9.606;2022-12-29T14:24:52;11.80;99.90
19930;DHT22;10127;47.780;9.606;2022-12-29T14:29:44;11.80;99.90
19930;DHT22;10127;47.780;9.606;2022-12-29T14:34:59;11.80;99.90
19930;DHT22;10127;47.780;9.606;2022-12-29T14:37:31;11.80;99.90
19930;DHT22;10127;47.780;9.606;2022-12-29T14:40:14;11.80;99.90
19930;DHT22;10127;47.780;9.606;2022-12-29T14:42:43;11.80;99.90
19930;DHT22;10127;47.780;9.606;2022-12-29T14:47:51;11.70;99.90
19930;DHT22;10127;47.780;9.606;2022-12-29T14:52:58;11.70;99.90
19930;DHT22;10127;47.780;9.606;2022-12-29T14:55:39;11.70;99.90
19930;DHT22;10127;47.780;9.606;2022-12-29T14:58:14;11.70;99.90
19930;DHT22;10127;47.780;9.606;2022-12-29T15:00:41;11.70;99.90
19930;DHT22;10127;47.780;9.606;2022-12-29T15:03:47;11.70;99.90
19930;DHT22;10127;47.780;9.606;2022-12-29T15:06:16;11.70;99.90
19930;DHT22;10127;47.780;9.606;2022-12-29T15:11:44;11.70;99.90
19930;DHT22;10127;47.780;9.606;2022-12-29T15:14:35;11.70;99.90
19930;DHT22;10127;47.780;9.606;2022-12-29T15:17:02;11.70;99.90
19930;DHT22;10127;47.780;9.606;2022-12-29T15:19:34;11.70;99.90
19930;DHT22;10127;47.780;9.606;2022-12-29T15:22:02;11.60;99.90
19930;DHT22;10127;47.780;9.606;2022-12-29T15:24:28;11.60;99.90
19930;DHT22;10127;47.780;9.606;2022-12-29T15:26:54;11.50;99.90
19930;DHT22;10127;47.780;9.606;2022-12-29T15:29:41;11.50;99.90
19930;DHT22;10127;47.780;9.606;2022-12-29T15:32:26;11.40;99.90
19930;DHT22;10127;47.780;9.606;2022-12-29T15:34:54;11.30;99.90
19930;DHT22;10127;47.780;9.606;2022-12-29T15:37:40;11.30;99.90
19930;DHT22;10127;47.780;9.606;2022-12-29T15:40:25;11.30;99.90
19930;DHT22;10127;47.780;9.606;2022-12-29T15:45:19;11.30;99.90
19930;DHT22;10127;47.780;9.606;2022-12-29T15:47:46;11.20;99.90
19930;DHT22;10127;47.780;9.606;2022-12-29T15:50:30;11.20;99.90
19930;DHT22;10127;47.780;9.606;2022-12-29T15:52:57;11.20;99.90
19930;DHT22;10127;47.780;9.606;2022-12-29T15:55:37;11.10;99.90
19930;DHT22;10127;47.780;9.606;2022-12-29T15:58:15;11.10;99.90
19930;DHT22;10127;47.780;9.606;2022-12-29T16:00:54;11.10;99.90
19930;DHT22;10127;47.780;9.606;2022-12-29T16:03:21;11.10;99.90
19930;DHT22;10127;47.780;9.606;2022-12-29T16:05:56;11.10;99.90
19930;DHT22;10127;47.780;9.606;2022-12-29T16:10:48;11.00;99.90
19930;DHT22;10127;47.780;9.606;2022-12-29T16:13:31;11.00;99.90
19930;DHT22;10127;47.780;9.606;2022-12-29T16:16:07;11.00;99.90
19930;DHT22;10127;47.780;9.606;2022-12-29T16:18:36;11.00;99.90
19930;DHT22;10127;47.780;9.606;2022-12-29T16:21:05;11.10;99.90
19930;DHT22;10127;47.780;9.606;2022-12-29T16:23:37;11.10;99.90
19930;DHT22;10127;47.780;9.606;2022-12-29T16:26:03;11.10;99.90
19930;DHT22;10127;47.780;9.606;2022-12-29T16:28:40;11.10;99.90
19930;DHT22;10127;47.780;9.606;2022-12-29T16:33:50;11.00;99.90
19930;DHT22;10127;47.780;9.606;2022-12-29T16:36:29;11.00;99.90
19930;DHT22;10127;47.780;9.606;2022-12-29T16:39:21;11.00;99.90
19930;DHT22;10127;47.780;9.606;2022-12-29T16:41:49;11.00;99.90
19930;DHT22;10127;47.780;9.606;2022-12-29T16:44:27;11.00;99.90
19930;DHT22;10127;47.780;9.606;2022-12-29T16:49:38;11.00;99.90
19930;DHT22;10127;47.780;9.606;2022-12-29T16:52:16;11.10;99.90
19930;DHT22;10127;47.780;9.606;2022-12-29T16:54:52;11.00;99.90
19930;DHT22;10127;47.780;9.606;2022-12-29T16:57:24;11.10;99.90
19930;DHT22;10127;47.780;9.606;2022-12-29T16:59:52;11.10;99.90
19930;DHT22;10127;47.780;9.606;2022-12-29T17:02:20;11.10;99.90
19930;DHT22;10127;47.780;9.606;2022-12-29T17:04:47;11.00;99.90
19930;DHT22;10127;47.780;9.606;2022-12-29T17:07:20;11.00;99.90
19930;DHT22;10127;47.780;9.606;2022-12-29T17:09:46;11.00;99.90
19930;DHT22;10127;47.780;9.606;2022-12-29T17:12:18;10.90;99.90
19930;DHT22;10127;47.780;9.606;2022-12-29T17:14:50;10.90;99.90
19930;DHT22;10127;47.780;9.606;2022-12-29T17:20:03;10.80;99.90
19930;DHT22;10127;47.780;9.606;2022-12-29T17:22:30;10.80;99.90
19930;DHT22;10127;47.780;9.606;2022-12-29T17:24:58;10.80;99.90
19930;DHT22;10127;47.780;9.606;2022-12-29T17:27:36;10.80;99.90
19930;DHT22;10127;47.780;9.606;2022-12-29T17:30:15;10.90;99.90
19930;DHT22;10127;47.780;9.606;2022-12-29T17:32:42;10.90;99.90
19930;DHT22;10127;47.780;9.606;2022-12-29T17:35:15;10.80;99.90
19930;DHT22;10127;47.780;9.606;2022-12-29T17:37:41;10.80;99.90
19930;DHT22;10127;47.780;9.606;2022-12-29T17:40:12;10.80;99.90
19930;DHT22;10127;47.780;9.606;2022-12-29T17:42:42;10.70;99.90
19930;DHT22;10127;47.780;9.606;2022-12-29T17:45:13;10.60;99.90
19930;DHT22;10127;47.780;9.606;2022-12-29T17:47:40;10.60;99.90
19930;DHT22;10127;47.780;9.606;2022-12-29T17:50:08;10.60;99.90
19930;DHT22;10127;47.780;9.606;2022-12-29T17:52:34;10.60;99.90
19930;DHT22;10127;47.780;9.606;2022-12-29T17:55:00;10.60;99.90
19930;DHT22;10127;47.780;9.606;2022-12-29T17:57:25;10.60;99.90
19930;DHT22;10127;47.780;9.606;2022-12-29T17:59:51;10.70;99.90
19930;DHT22;10127;47.780;9.606;2022-12-29T18:02:30;10.60;99.90
19930;DHT22;10127;47.780;9.606;2022-12-29T18:04:57;10.70;99.90
19930;DHT22;10127;47.780;9.606;2022-12-29T18:07:26;10.70;99.90
19930;DHT22;10127;47.780;9.606;2022-12-29T18:09:52;10.70;99.90
19930;DHT22;10127;47.780;9.606;2022-12-29T18:12:30;10.70;99.90
19930;DHT22;10127;47.780;9.606;2022-12-29T18:14:57;10.70;99.90
19930;DHT22;10127;47.780;9.606;2022-12-29T18:17:23;10.60;99.90
19930;DHT22;10127;47.780;9.606;2022-12-29T18:19:49;10.60;99.90